Southport, ME

2:34 AM EDT on September 02, 2015 (GMT -0400)
Southport ME, Dogfish Head | | Change Station
CLOSE
Current Station
Personal Weather Station
Location: Southport, ME
Elevation: 43 ft
Nearby Weather Stations

Elev 43 ft 43.84 °N, 69.68 °W | Updated 3 minutes ago

Clear
Clear
63.9 °F
Feels Like 63.9 °F
N
1.0
Wind Variable Wind from SSE
Gusts 5.0 mph

Today
High -- | Low -- °F
--% Chance of Precip.
Yesterday
High -- | Low -- °F
Precip. -- in
6:02 AM 7:13 PM
Waning Gibbous, 83% visible
Pressure 30.03 in
Visibility 10.0 miles
Clouds Clear
Dew Point 60 °F
Humidity 86%
Rainfall 0.00 in
Snow Depth Not available.
UV 0.0 out of 12
Pollen 8.30 out of 12
Air Quality Not available.
Flu Activity Not available.
METAR KIWI 020553Z AUTO 00000KT 10SM CLR 14/13 A3003 RMK AO2 SLP168 T01390128 10189 20139 58006
Pressure 30.03 in
Visibility 10.0 miles
Clouds Clear
Dew Point 60 °F
Humidity 86%
Rainfall 0.00 in
Snow Depth Not available.
UV 0.0 out of 12
Pollen 8.30 out of 12
Air Quality Not available.
Flu Activity Not available.
METAR KIWI 020553Z AUTO 00000KT 10SM CLR 14/13 A3003 RMK AO2 SLP168 T01390128 10189 20139 58006

10-Day Weather Forecast

×

Almanac

Astronomy

Sep. 02, 2015 Rise Set
Actual Time
Civil Twilight
Nautical Twilight
Astronomical Twilight
Moon
Length of Visible Light
Length of Day
Tomorrow will be .
, % of the Moon is Illuminated

Today's Extremes

State Highs State Lows

Community

WunderPhotos

Upload Photos

1,851,709 photos uploaded!

WunderBlogs® & News

Nearby

Air Quality

  Air Quality AQ Index Pollutant
Not available.

Snow Depth

Station Depth Elevation

Earthquake Activity

City Distance Mag. Time & Date
Minimum magnitude displayed is 2.5.

Coastal Water Temperatures

Place Temperature

Stations

Nearby Weather Stations

Station Location Temp. Windchill Dew Point Humidity Wind Precip. Elev Updated Type